CSTCW LPSO-LEPA
Flight info
| Callsign | CSTCW |
|---|---|
| Flight time | N/A |
| Altitude | 40000 |
| Route | IDBID DCT BARDI M191 DIPOL M871 ABOSI/N0429F410 DCT GODOX |
| Aircraft | LJ35/M-SGHRWXY/SB1 |
Departure
| Time | N/A |
|---|---|
| Airport | Aeródromo Municipal de Ponte de Sor (LPSO) |
Arrival
| Time | 2026-05-03 20:34 |
|---|---|
| Airport | Palma de Mallorca Airport (LEPA) |
| Time | Latitude | Longitude | Altitude | Speed | Heading |
|---|---|---|---|---|---|
| 2026-05-03 20:15 | 39.43429 | 1.88297 | 10006 ft | 280 kts | 82° |
| 2026-05-03 20:15 | 39.43749 | 1.90788 | 10017 ft | 280 kts | 82° |
| 2026-05-03 20:15 | 39.44069 | 1.93279 | 9988 ft | 280 kts | 83° |
| 2026-05-03 20:15 | 39.44387 | 1.95771 | 9670 ft | 281 kts | 83° |
| 2026-05-03 20:16 | 39.44704 | 1.98255 | 9430 ft | 280 kts | 83° |
| 2026-05-03 20:16 | 39.45017 | 2.00701 | 9094 ft | 271 kts | 83° |
| 2026-05-03 20:16 | 39.45366 | 2.03106 | 9008 ft | 271 kts | 76° |
| 2026-05-03 20:16 | 39.45953 | 2.05382 | 9007 ft | 269 kts | 71° |
| 2026-05-03 20:17 | 39.46582 | 2.07655 | 9007 ft | 266 kts | 72° |
| 2026-05-03 20:17 | 39.47184 | 2.09920 | 9005 ft | 267 kts | 72° |
| 2026-05-03 20:17 | 39.47792 | 2.12259 | 9006 ft | 284 kts | 72° |
| 2026-05-03 20:17 | 39.48449 | 2.14771 | 9012 ft | 305 kts | 72° |
| 2026-05-03 20:18 | 39.49144 | 2.17407 | 9015 ft | 312 kts | 72° |
| 2026-05-03 20:18 | 39.49850 | 2.20089 | 9014 ft | 317 kts | 72° |
| 2026-05-03 20:18 | 39.50564 | 2.22813 | 9011 ft | 320 kts | 72° |
| 2026-05-03 20:18 | 39.51284 | 2.25560 | 9011 ft | 323 kts | 72° |
| 2026-05-03 20:19 | 39.51998 | 2.28292 | 9010 ft | 325 kts | 72° |
| 2026-05-03 20:19 | 39.52735 | 2.31104 | 9010 ft | 326 kts | 72° |
| 2026-05-03 20:19 | 39.53451 | 2.33850 | 9009 ft | 327 kts | 72° |
| 2026-05-03 20:19 | 39.54181 | 2.36651 | 9008 ft | 328 kts | 72° |
| 2026-05-03 20:20 | 39.54860 | 2.39511 | 9002 ft | 328 kts | 79° |
| 2026-05-03 20:20 | 39.55062 | 2.42373 | 8991 ft | 320 kts | 86° |
| 2026-05-03 20:20 | 39.55526 | 2.45199 | 8708 ft | 319 kts | 72° |
| 2026-05-03 20:20 | 39.56364 | 2.47824 | 8311 ft | 307 kts | 65° |
| 2026-05-03 20:21 | 39.57350 | 2.50183 | 7768 ft | 294 kts | 58° |
| 2026-05-03 20:21 | 39.58469 | 2.52375 | 7209 ft | 285 kts | 56° |
| 2026-05-03 20:21 | 39.59566 | 2.54468 | 6669 ft | 278 kts | 56° |
| 2026-05-03 20:21 | 39.60635 | 2.56516 | 6161 ft | 267 kts | 53° |
| 2026-05-03 20:22 | 39.61747 | 2.58345 | 5990 ft | 247 kts | 52° |
| 2026-05-03 20:22 | 39.62794 | 2.59975 | 5981 ft | 225 kts | 47° |
| 2026-05-03 20:22 | 39.63818 | 2.61394 | 5976 ft | 207 kts | 45° |
| 2026-05-03 20:22 | 39.64774 | 2.62699 | 5947 ft | 193 kts | 46° |
| 2026-05-03 20:23 | 39.65549 | 2.64031 | 5952 ft | 178 kts | 57° |
| 2026-05-03 20:23 | 39.66080 | 2.65392 | 5923 ft | 163 kts | 88° |
| 2026-05-03 20:23 | 39.65693 | 2.66726 | 5956 ft | 171 kts | 144° |
| 2026-05-03 20:23 | 39.64561 | 2.67442 | 5991 ft | 199 kts | 166° |
| 2026-05-03 20:24 | 39.63173 | 2.68050 | 5999 ft | 221 kts | 166° |
| 2026-05-03 20:24 | 39.61764 | 2.69038 | 5991 ft | 245 kts | 140° |
| 2026-05-03 20:24 | 39.60926 | 2.71035 | 5989 ft | 264 kts | 105° |
| 2026-05-03 20:24 | 39.61035 | 2.73368 | 5982 ft | 259 kts | 71° |
| 2026-05-03 20:25 | 39.62009 | 2.75244 | 5983 ft | 247 kts | 45° |
| 2026-05-03 20:25 | 39.63220 | 2.76763 | 5976 ft | 239 kts | 41° |
| 2026-05-03 20:25 | 39.64419 | 2.78206 | 5982 ft | 232 kts | 41° |
| 2026-05-03 20:25 | 39.65597 | 2.79612 | 5980 ft | 228 kts | 41° |
| 2026-05-03 20:26 | 39.66720 | 2.80951 | 5973 ft | 211 kts | 41° |
| 2026-05-03 20:26 | 39.67769 | 2.82208 | 5977 ft | 201 kts | 41° |
| 2026-05-03 20:26 | 39.68787 | 2.83433 | 5978 ft | 204 kts | 41° |
| 2026-05-03 20:26 | 39.69844 | 2.84724 | 5978 ft | 212 kts | 41° |
| 2026-05-03 20:27 | 39.70924 | 2.86052 | 5982 ft | 216 kts | 42° |
| 2026-05-03 20:27 | 39.71940 | 2.87494 | 5974 ft | 219 kts | 61° |
| 2026-05-03 20:27 | 39.72377 | 2.89371 | 5982 ft | 217 kts | 81° |
| 2026-05-03 20:27 | 39.72645 | 2.91295 | 5990 ft | 215 kts | 82° |
| 2026-05-03 20:28 | 39.72906 | 2.93200 | 5987 ft | 214 kts | 82° |
| 2026-05-03 20:28 | 39.73162 | 2.95101 | 5987 ft | 213 kts | 85° |
| 2026-05-03 20:28 | 39.72877 | 2.96906 | 5978 ft | 202 kts | 127° |
| 2026-05-03 20:28 | 39.71812 | 2.97948 | 5931 ft | 190 kts | 169° |
| 2026-05-03 20:29 | 39.70495 | 2.98173 | 5883 ft | 191 kts | 180° |
| 2026-05-03 20:29 | 39.69122 | 2.98230 | 5519 ft | 199 kts | 184° |
| 2026-05-03 20:29 | 39.67752 | 2.98181 | 5116 ft | 202 kts | 185° |
| 2026-05-03 20:29 | 39.66354 | 2.98123 | 4867 ft | 197 kts | 187° |
| 2026-05-03 20:30 | 39.65060 | 2.97688 | 4646 ft | 191 kts | 214° |
| 2026-05-03 20:30 | 39.64262 | 2.96361 | 4555 ft | 181 kts | 243° |
| 2026-05-03 20:30 | 39.63707 | 2.94934 | 4560 ft | 178 kts | 242° |
| 2026-05-03 20:30 | 39.63129 | 2.93486 | 4528 ft | 182 kts | 246° |
| 2026-05-03 20:31 | 39.62593 | 2.91985 | 4493 ft | 184 kts | 242° |
| 2026-05-03 20:31 | 39.62068 | 2.90565 | 4207 ft | 167 kts | 246° |
| 2026-05-03 20:31 | 39.61593 | 2.89249 | 3769 ft | 160 kts | 243° |
| 2026-05-03 20:31 | 39.61064 | 2.87935 | 3328 ft | 166 kts | 242° |
| 2026-05-03 20:32 | 39.60542 | 2.86589 | 2906 ft | 170 kts | 242° |
| 2026-05-03 20:32 | 39.59946 | 2.85285 | 2564 ft | 169 kts | 237° |
| 2026-05-03 20:32 | 39.59343 | 2.83981 | 2202 ft | 168 kts | 237° |
| 2026-05-03 20:32 | 39.58708 | 2.82692 | 1714 ft | 177 kts | 236° |
| 2026-05-03 20:33 | 39.58074 | 2.81328 | 1470 ft | 176 kts | 238° |
| 2026-05-03 20:33 | 39.57402 | 2.79950 | 1032 ft | 183 kts | 237° |
| 2026-05-03 20:33 | 39.56691 | 2.78543 | 602 ft | 190 kts | 237° |
| 2026-05-03 20:33 | 39.55982 | 2.77100 | 242 ft | 186 kts | 239° |
| 2026-05-03 20:34 | 39.55331 | 2.75727 | 43 ft | 168 kts | 240° |
| 2026-05-03 20:34 | 39.54836 | 2.74662 | 24 ft | 95 kts | 238° |
| 2026-05-03 20:34 | 39.54620 | 2.74209 | 28 ft | 49 kts | 238° |
| 2026-05-03 20:34 | 39.54543 | 2.74021 | 29 ft | 10 kts | 255° |
| 2026-05-03 20:35 | 39.54552 | 2.73963 | 28 ft | 14 kts | 276° |
| 2026-05-03 20:35 | 39.54549 | 2.73820 | 29 ft | 8 kts | 270° |
| 2026-05-03 20:35 | 39.54549 | 2.73818 | 29 ft | 0 kts | 269° |
| 2026-05-03 20:36 | 39.54549 | 2.73817 | 29 ft | 0 kts | 269° |
| 2026-05-03 20:36 | 39.54549 | 2.73798 | 29 ft | 5 kts | 270° |
| 2026-05-03 20:36 | 39.54550 | 2.73702 | 29 ft | 16 kts | 272° |
| 2026-05-03 20:36 | 39.54517 | 2.73547 | 30 ft | 21 kts | 239° |
| 2026-05-03 20:37 | 39.54435 | 2.73374 | 31 ft | 24 kts | 239° |
| 2026-05-03 20:37 | 39.54359 | 2.73216 | 32 ft | 19 kts | 237° |
| 2026-05-03 20:37 | 39.54284 | 2.73061 | 33 ft | 18 kts | 239° |
| 2026-05-03 20:37 | 39.54221 | 2.72924 | 34 ft | 17 kts | 243° |
| 2026-05-03 20:38 | 39.54258 | 2.72831 | 34 ft | 10 kts | 332° |
| 2026-05-03 20:38 | 39.54258 | 2.72755 | 33 ft | 12 kts | 235° |
| 2026-05-03 20:38 | 39.54209 | 2.72654 | 33 ft | 9 kts | 239° |
| 2026-05-03 20:38 | 39.54172 | 2.72558 | 32 ft | 10 kts | 258° |
| 2026-05-03 20:39 | 39.54139 | 2.72459 | 31 ft | 7 kts | 287° |
| 2026-05-03 20:39 | 39.54173 | 2.72423 | 31 ft | 0 kts | 324° |
| 2026-05-03 20:39 | 39.54181 | 2.72416 | 31 ft | 0 kts | 324° |